createdAt,value
2023-04-14T00:01:02.219Z,2.40
2023-04-14T00:05:13.929Z,2.23
2023-04-14T00:09:26.363Z,2.30
2023-04-14T00:13:38.047Z,2.30
2023-04-14T00:17:49.663Z,2.50
2023-04-14T00:22:01.361Z,2.20
2023-04-14T00:26:12.917Z,2.90
2023-04-14T00:30:27.887Z,2.40
2023-04-14T00:34:40.983Z,2.37
2023-04-14T00:38:52.862Z,2.70
2023-04-14T00:43:04.404Z,2.20
2023-04-14T00:47:16.344Z,2.17
2023-04-14T00:51:28.181Z,2.53
2023-04-14T00:55:41.518Z,2.47
2023-04-14T00:59:54.129Z,2.20
2023-04-14T01:04:06.472Z,2.40
2023-04-14T01:08:21.912Z,2.30
2023-04-14T01:12:49.689Z,2.70
2023-04-14T01:17:31.290Z,2.87
2023-04-14T01:21:49.939Z,3.10
2023-04-14T01:26:22.049Z,2.83
2023-04-14T01:30:48.583Z,2.90
2023-04-14T01:35:11.073Z,2.90
2023-04-14T01:39:26.523Z,2.63
2023-04-14T01:43:42.475Z,2.63
2023-04-14T01:47:55.176Z,2.57
2023-04-14T01:52:11.355Z,3.13
2023-04-14T01:56:25.497Z,3.53
2023-04-14T02:00:38.103Z,3.50
2023-04-14T02:04:50.134Z,3.80
2023-04-14T02:09:04.706Z,3.60
2023-04-14T02:13:19.363Z,3.67
2023-04-14T02:17:31.061Z,3.80
2023-04-14T02:21:43.356Z,4.13
2023-04-14T02:26:04.704Z,3.80
2023-04-14T02:30:21.496Z,3.53
2023-04-14T02:34:43.512Z,3.97
2023-04-14T02:38:57.997Z,3.23
2023-04-14T02:43:28.414Z,3.27
2023-04-14T02:47:46.371Z,3.60
2023-04-14T02:51:59.009Z,3.67
2023-04-14T02:56:10.914Z,3.53
2023-04-14T03:00:26.391Z,3.93
2023-04-14T03:04:40.891Z,3.57
2023-04-14T03:09:29.658Z,3.33
2023-04-14T03:13:43.525Z,3.70
2023-04-14T03:17:57.312Z,3.53
2023-04-14T03:22:12.449Z,4.07
2023-04-14T03:26:28.003Z,3.57
2023-04-14T03:30:43.997Z,3.43
2023-04-14T03:34:58.847Z,3.90
2023-04-14T03:39:14.669Z,3.70
2023-04-14T03:43:28.391Z,4.43
2023-04-14T03:47:46.324Z,3.50
2023-04-14T03:52:03.652Z,3.53
2023-04-14T03:56:17.674Z,3.70
2023-04-14T04:00:30.928Z,4.30
2023-04-14T04:04:44.461Z,4.23
2023-04-14T04:08:59.235Z,3.90
2023-04-14T04:13:15.958Z,4.07
2023-04-14T04:17:31.379Z,4.10
2023-04-14T04:21:45.825Z,3.67
2023-04-14T04:25:58.514Z,3.60
2023-04-14T04:30:22.756Z,3.80
2023-04-14T04:34:35.230Z,4.00
2023-04-14T04:38:49.702Z,4.80
2023-04-14T04:43:01.632Z,4.47
2023-04-14T04:47:13.623Z,5.53
2023-04-14T04:51:25.954Z,4.47
2023-04-14T04:55:37.538Z,5.23
2023-04-14T04:59:49.024Z,4.70
2023-04-14T05:04:00.846Z,5.10
2023-04-14T05:08:14.546Z,4.60
2023-04-14T05:12:26.986Z,5.10
2023-04-14T05:16:38.406Z,5.23
2023-04-14T05:20:49.873Z,4.67
2023-04-14T05:25:01.624Z,4.60
2023-04-14T05:29:13.170Z,4.40
2023-04-14T05:33:24.618Z,4.50
2023-04-14T05:37:36.428Z,5.00
2023-04-14T05:41:47.971Z,4.80
2023-04-14T05:46:00.300Z,4.60
2023-04-14T05:50:11.994Z,3.77
2023-04-14T05:54:23.520Z,4.15
2023-04-14T05:58:35.331Z,4.15
2023-04-14T06:02:47.058Z,4.00
2023-04-14T06:06:59.002Z,3.90
2023-04-14T06:11:10.608Z,4.55
2023-04-14T06:15:22.165Z,3.28
2023-04-14T06:19:33.750Z,3.38
2023-04-14T06:23:45.490Z,3.72
2023-04-14T06:27:57.102Z,3.72
2023-04-14T06:32:08.732Z,3.00
2023-04-14T06:36:20.457Z,3.42
2023-04-14T06:40:32.088Z,3.08
2023-04-14T06:44:43.650Z,2.97
2023-04-14T06:48:55.353Z,3.10
2023-04-14T06:53:09.048Z,3.35
2023-04-14T06:57:20.786Z,2.92
2023-04-14T07:01:33.510Z,3.22
2023-04-14T07:05:45.019Z,3.40
2023-04-14T07:09:56.624Z,3.20
2023-04-14T07:14:08.257Z,2.80
2023-04-14T07:18:19.868Z,3.25
2023-04-14T07:22:33.372Z,3.15
2023-04-14T07:26:44.910Z,3.40
2023-04-14T07:30:56.659Z,3.30
2023-04-14T07:35:10.834Z,3.05
2023-04-14T07:39:23.585Z,2.83
2023-04-14T07:43:35.812Z,3.40
2023-04-14T07:47:47.517Z,3.13
2023-04-14T07:52:00.000Z,3.00
2023-04-14T07:56:12.387Z,2.60
2023-04-14T08:00:24.050Z,2.65
2023-04-14T08:04:36.595Z,2.45
2023-04-14T08:08:48.290Z,2.63
2023-04-14T08:13:03.022Z,2.50
2023-04-14T08:17:15.381Z,2.50
2023-04-14T08:21:27.764Z,2.78
2023-04-14T08:25:39.367Z,2.80
2023-04-14T08:29:51.658Z,2.45
2023-04-14T08:34:03.190Z,2.97
2023-04-14T08:38:14.694Z,2.10
2023-04-14T08:42:26.306Z,1.85
2023-04-14T08:46:37.988Z,1.98
2023-04-14T08:51:14.612Z,1.85
2023-04-14T08:55:26.870Z,2.00
2023-04-14T08:59:38.783Z,1.70
2023-04-14T09:03:50.928Z,1.50
2023-04-14T09:08:03.710Z,1.60
2023-04-14T09:12:17.054Z,1.50
2023-04-14T09:16:29.123Z,1.65
2023-04-14T09:20:41.883Z,1.70
2023-04-14T09:24:53.926Z,1.75
2023-04-14T09:29:05.565Z,1.60
2023-04-14T09:37:44.437Z,1.60
2023-04-14T09:41:56.023Z,1.70
2023-04-14T09:46:09.395Z,1.63
2023-04-14T09:50:21.124Z,1.33
2023-04-14T09:54:33.396Z,1.33
2023-04-14T09:58:48.894Z,1.25
2023-04-14T10:03:01.435Z,1.30
2023-04-14T10:07:13.208Z,1.17
2023-04-14T10:11:30.009Z,1.20
2023-04-14T10:15:42.019Z,1.35
2023-04-14T10:19:54.014Z,1.50
2023-04-14T10:24:06.164Z,1.58
2023-04-14T10:28:18.295Z,1.67
2023-04-14T10:32:33.926Z,1.30
2023-04-14T10:36:46.392Z,1.17
2023-04-14T10:40:59.963Z,1.60
2023-04-14T10:45:12.626Z,1.58
2023-04-14T10:49:28.955Z,1.40
2023-04-14T10:53:50.018Z,1.40
2023-04-14T10:58:08.742Z,1.27
2023-04-14T11:02:30.906Z,1.20
2023-04-14T11:06:46.112Z,1.50
2023-04-14T11:11:02.946Z,1.20
2023-04-14T11:15:15.552Z,1.30
2023-04-14T11:19:27.359Z,1.38
2023-04-14T11:23:39.112Z,1.15
2023-04-14T11:27:50.631Z,1.27
2023-04-14T11:32:06.581Z,1.13
2023-04-14T11:36:18.342Z,1.25
2023-04-14T11:40:30.064Z,1.30
2023-04-14T11:44:41.586Z,1.38
2023-04-14T11:48:57.088Z,1.30
2023-04-14T11:53:09.764Z,1.50
2023-04-14T11:57:21.319Z,1.35
2023-04-14T12:01:33.191Z,1.33
2023-04-14T12:05:45.139Z,1.50
2023-04-14T12:09:57.812Z,1.45
2023-04-14T12:14:09.596Z,1.30
2023-04-14T12:18:21.843Z,1.50
2023-04-14T12:22:33.747Z,1.70
2023-04-14T12:26:45.296Z,1.50
2023-04-14T12:30:59.575Z,1.50
2023-04-14T12:35:11.256Z,1.85
2023-04-14T12:39:25.985Z,1.70
2023-04-14T12:43:40.663Z,1.58
2023-04-14T12:47:56.680Z,1.88
2023-04-14T12:52:08.737Z,1.40
2023-04-14T12:56:23.756Z,1.35
2023-04-14T13:00:35.511Z,1.45
2023-04-14T13:04:47.094Z,1.38
2023-04-14T13:08:59.680Z,1.55
2023-04-14T13:13:11.389Z,1.30
2023-04-14T13:17:24.090Z,1.40
2023-04-14T13:21:36.824Z,1.33
2023-04-14T13:25:48.730Z,1.10
2023-04-14T13:30:00.552Z,1.40
2023-04-14T13:34:12.251Z,1.20
2023-04-14T13:38:23.960Z,1.45
2023-04-14T13:42:35.684Z,1.50
2023-04-14T13:46:49.402Z,1.27
2023-04-14T13:51:01.984Z,2.28
2023-04-14T13:55:14.095Z,2.00
2023-04-14T13:59:25.872Z,1.95
2023-04-14T14:03:44.063Z,1.80
2023-04-14T14:07:57.005Z,1.65
2023-04-14T14:12:12.139Z,1.83
2023-04-14T14:16:36.231Z,1.70
2023-04-14T14:20:49.346Z,1.75
2023-04-14T14:25:14.957Z,1.65
2023-04-14T14:29:30.650Z,1.67
2023-04-14T14:33:42.300Z,2.15
2023-04-14T14:37:53.988Z,3.50
2023-04-14T14:42:05.899Z,2.03
2023-04-14T14:46:17.795Z,2.45
2023-04-14T14:50:29.535Z,1.52
2023-04-14T14:54:41.247Z,1.35
2023-04-14T14:58:53.001Z,1.38
2023-04-14T15:03:05.488Z,1.75
2023-04-14T15:07:17.730Z,1.48
2023-04-14T15:11:29.632Z,1.48
2023-04-14T15:15:41.357Z,1.35
2023-04-14T15:19:53.152Z,1.40
2023-04-14T15:24:04.882Z,1.60
2023-04-14T15:28:16.608Z,1.30
2023-04-14T15:32:28.319Z,1.33
2023-04-14T15:36:40.074Z,1.08
2023-04-14T15:40:53.714Z,1.20
2023-04-14T15:45:05.932Z,1.20
2023-04-14T15:49:18.101Z,1.10
2023-04-14T15:53:29.910Z,1.25
2023-04-14T15:57:41.775Z,1.35
2023-04-14T16:01:53.790Z,1.55
2023-04-14T16:06:07.360Z,1.05
2023-04-14T16:10:19.314Z,1.10
2023-04-14T16:14:39.262Z,1.25
2023-04-14T16:18:54.542Z,1.25
2023-04-14T16:23:12.457Z,0.80
2023-04-14T16:27:24.169Z,1.17
2023-04-14T16:31:35.819Z,1.00
2023-04-14T16:35:47.725Z,1.15
2023-04-14T16:40:02.102Z,1.38
2023-04-14T16:44:13.890Z,1.52
2023-04-14T16:48:25.556Z,2.17
2023-04-14T16:52:37.950Z,1.42
2023-04-14T16:56:49.669Z,0.90
2023-04-14T17:01:01.626Z,0.93
2023-04-14T17:05:16.003Z,1.67
2023-04-14T17:09:27.943Z,1.20
2023-04-14T17:13:41.389Z,1.00
2023-04-14T17:17:53.538Z,1.05
2023-04-14T17:22:05.798Z,1.17
2023-04-14T17:26:18.348Z,1.58
2023-04-14T17:30:32.335Z,1.48
2023-04-14T17:34:45.128Z,1.95
2023-04-14T17:38:56.885Z,1.88
2023-04-14T17:43:08.679Z,1.67
2023-04-14T17:47:21.942Z,2.28
2023-04-14T17:51:34.463Z,4.13
2023-04-14T17:55:46.140Z,3.70
2023-04-14T17:59:59.074Z,20.38
2023-04-14T18:04:10.906Z,11.30
2023-04-14T18:08:22.654Z,3.83
2023-04-14T18:12:34.548Z,3.78
2023-04-14T18:16:46.235Z,3.67
2023-04-14T18:20:57.867Z,3.58
2023-04-14T18:25:09.747Z,2.25
2023-04-14T18:29:21.711Z,2.70
2023-04-14T18:33:33.367Z,5.50
2023-04-14T18:37:46.366Z,5.03
2023-04-14T18:41:58.004Z,5.60
2023-04-14T18:46:09.699Z,5.60
2023-04-14T18:50:21.612Z,5.18
2023-04-14T18:54:33.849Z,5.38
2023-04-14T18:58:46.121Z,6.88
2023-04-14T19:02:57.933Z,4.20
2023-04-14T19:07:09.867Z,4.85
2023-04-14T19:11:21.595Z,3.55
2023-04-14T19:15:33.142Z,2.65
2023-04-14T19:19:44.644Z,2.45
2023-04-14T19:23:57.173Z,3.35
2023-04-14T19:28:16.320Z,1.75
2023-04-14T19:32:28.246Z,3.10
2023-04-14T19:36:39.785Z,2.92
2023-04-14T19:40:51.289Z,1.85
2023-04-14T19:45:02.977Z,2.13
2023-04-14T19:49:15.517Z,14.82
2023-04-14T19:53:28.702Z,10.02
2023-04-14T19:57:40.668Z,5.60
2023-04-14T20:01:54.486Z,3.53
2023-04-14T20:06:06.227Z,2.95
2023-04-14T20:10:18.294Z,4.65
2023-04-14T20:14:29.989Z,4.05
2023-04-14T20:18:45.263Z,4.80
2023-04-14T20:22:58.754Z,7.95
2023-04-14T20:27:11.046Z,5.63
2023-04-14T20:31:23.762Z,4.20
2023-04-14T20:35:36.908Z,6.40
2023-04-14T20:39:49.694Z,4.03
2023-04-14T20:44:01.434Z,3.00
2023-04-14T20:48:13.650Z,2.03
2023-04-14T20:52:26.408Z,4.40
2023-04-14T20:56:38.191Z,2.72
2023-04-14T21:00:50.535Z,1.63
2023-04-14T21:05:02.246Z,1.80
2023-04-14T21:09:14.583Z,2.88
2023-04-14T21:15:29.450Z,2.20
2023-04-14T21:17:58.179Z,2.97
2023-04-14T21:22:09.886Z,2.67
2023-04-14T21:26:22.100Z,2.20
2023-04-14T21:30:34.281Z,1.75
2023-04-14T21:34:46.186Z,2.40
2023-04-14T21:38:58.196Z,2.40
2023-04-14T21:43:09.834Z,2.70
2023-04-14T21:47:22.225Z,1.90
2023-04-14T21:51:33.892Z,2.25
2023-04-14T21:55:45.949Z,2.20
2023-04-14T21:59:57.540Z,2.67
2023-04-14T22:04:37.036Z,2.75
2023-04-14T22:08:48.975Z,2.47
2023-04-14T22:13:00.699Z,2.63
2023-04-14T22:17:12.365Z,2.85
2023-04-14T22:21:24.021Z,2.60
2023-04-14T22:25:35.694Z,3.08
2023-04-14T22:29:47.271Z,2.50
2023-04-14T22:33:58.939Z,2.80
2023-04-14T22:38:10.623Z,2.55
2023-04-14T22:42:22.455Z,2.90
2023-04-14T22:46:34.594Z,2.72
2023-04-14T22:50:46.330Z,3.40
2023-04-14T22:54:57.852Z,3.05
2023-04-14T22:59:09.692Z,3.08
2023-04-14T23:03:21.453Z,2.80
2023-04-14T23:07:33.278Z,2.75
2023-04-14T23:11:44.882Z,3.15
2023-04-14T23:15:56.626Z,2.72
2023-04-14T23:20:08.822Z,2.60
2023-04-14T23:24:22.330Z,3.22
2023-04-14T23:28:34.008Z,2.65
2023-04-14T23:32:45.549Z,3.33
2023-04-14T23:36:57.200Z,3.08
2023-04-14T23:41:08.826Z,2.97
2023-04-14T23:45:20.985Z,2.72
2023-04-14T23:49:32.628Z,2.90
2023-04-14T23:53:44.953Z,3.67
